sensor_id;sensor_type;location;lat;lon;timestamp;P1;P4;P2;P0;N10;N4;N25;N1;N05;TS
66834;SPS30;53743;51.100;5.874;2023-04-01T00:00:04;0.91;0.84;0.70;0.51;4.08;4.07;4.04;3.86;3.13;0.71
66834;SPS30;53743;51.100;5.874;2023-04-01T00:01:13;1.44;1.33;1.11;0.81;6.47;6.46;6.41;6.13;4.98;0.70
66834;SPS30;53743;51.100;5.874;2023-04-01T00:02:16;0.93;0.86;0.72;0.52;4.13;4.12;4.09;3.91;3.16;0.71
66834;SPS30;53743;51.100;5.874;2023-04-01T00:03:17;1.03;0.95;0.79;0.57;4.55;4.54;4.50;4.30;3.47;0.71
66834;SPS30;53743;51.100;5.874;2023-04-01T00:04:19;0.98;0.90;0.75;0.54;4.30;4.29;4.26;4.06;3.28;0.71
66834;SPS30;53743;51.100;5.874;2023-04-01T00:05:20;1.00;0.92;0.77;0.55;4.44;4.43;4.39;4.20;3.39;0.70
66834;SPS30;53743;51.100;5.874;2023-04-01T00:06:24;1.18;1.09;0.91;0.66;5.29;5.28;5.24;5.01;4.07;0.69
66834;SPS30;53743;51.100;5.874;2023-04-01T00:07:25;1.21;1.12;0.94;0.69;5.52;5.51;5.47;5.24;4.27;0.68
66834;SPS30;53743;51.100;5.874;2023-04-01T00:08:27;0.87;0.81;0.68;0.50;4.02;4.02;3.99;3.83;3.12;0.68
66834;SPS30;53743;51.100;5.874;2023-04-01T00:09:30;1.06;0.98;0.83;0.61;4.92;4.91;4.87;4.68;3.82;0.68
66834;SPS30;53743;51.100;5.874;2023-04-01T00:10:32;1.08;1.00;0.84;0.62;4.95;4.94;4.91;4.70;3.84;0.69
66834;SPS30;53743;51.100;5.874;2023-04-01T00:11:33;1.01;0.93;0.78;0.57;4.57;4.56;4.53;4.33;3.52;0.69
66834;SPS30;53743;51.100;5.874;2023-04-01T00:12:35;1.07;0.99;0.83;0.60;4.81;4.80;4.76;4.55;3.70;0.70
66834;SPS30;53743;51.100;5.874;2023-04-01T00:13:36;0.95;0.88;0.74;0.54;4.29;4.29;4.25;4.07;3.30;0.70
66834;SPS30;53743;51.100;5.874;2023-04-01T00:14:38;0.98;0.90;0.76;0.56;4.47;4.46;4.43;4.24;3.45;0.70
66834;SPS30;53743;51.100;5.874;2023-04-01T00:15:40;1.27;1.17;0.98;0.72;5.75;5.74;5.70;5.46;4.44;0.71
66834;SPS30;53743;51.100;5.874;2023-04-01T00:16:42;1.05;0.97;0.82;0.59;4.76;4.75;4.71;4.51;3.66;0.70
66834;SPS30;53743;51.100;5.874;2023-04-01T00:17:42;0.74;0.69;0.57;0.42;3.34;3.33;3.30;3.16;2.56;0.71
66834;SPS30;53743;51.100;5.874;2023-04-01T00:18:44;1.17;1.08;0.91;0.65;5.25;5.24;5.20;4.97;4.03;0.72
66834;SPS30;53743;51.100;5.874;2023-04-01T00:19:47;0.79;0.73;0.61;0.44;3.55;3.54;3.52;3.36;2.73;0.71
66834;SPS30;53743;51.100;5.874;2023-04-01T00:20:50;1.21;1.12;0.94;0.68;5.49;5.48;5.43;5.20;4.23;0.71
66834;SPS30;53743;51.100;5.874;2023-04-01T00:21:52;1.72;1.59;1.33;0.97;7.78;7.76;7.70;7.37;5.99;0.71
66834;SPS30;53743;51.100;5.874;2023-04-01T00:22:54;0.97;0.90;0.75;0.54;4.34;4.34;4.30;4.11;3.33;0.71
66834;SPS30;53743;51.100;5.874;2023-04-01T00:23:56;0.82;0.76;0.63;0.46;3.67;3.67;3.64;3.48;2.82;0.71
66834;SPS30;53743;51.100;5.874;2023-04-01T00:24:59;1.00;0.92;0.78;0.57;4.54;4.53;4.50;4.31;3.50;0.71
66834;SPS30;53743;51.100;5.874;2023-04-01T00:26:00;1.42;1.31;1.11;0.81;6.52;6.51;6.47;6.20;5.06;0.71
66834;SPS30;53743;51.100;5.874;2023-04-01T00:27:03;1.09;1.01;0.86;0.64;5.10;5.10;5.06;4.86;3.98;0.70
66834;SPS30;53743;51.100;5.874;2023-04-01T00:28:04;0.88;0.82;0.70;0.52;4.18;4.18;4.15;3.99;3.28;0.70
66834;SPS30;53743;51.100;5.874;2023-04-01T00:29:06;0.71;0.66;0.56;0.42;3.38;3.37;3.35;3.23;2.65;0.70
66834;SPS30;53743;51.100;5.874;2023-04-01T00:30:08;1.01;0.94;0.79;0.59;4.69;4.68;4.65;4.46;3.65;0.72
66834;SPS30;53743;51.100;5.874;2023-04-01T00:31:11;0.98;0.90;0.76;0.56;4.47;4.46;4.43;4.25;3.46;0.73
66834;SPS30;53743;51.100;5.874;2023-04-01T00:32:13;1.30;1.21;1.02;0.76;6.08;6.07;6.03;5.79;4.74;0.72
66834;SPS30;53743;51.100;5.874;2023-04-01T00:33:15;1.11;1.04;0.88;0.66;5.31;5.31;5.27;5.07;4.17;0.70
66834;SPS30;53743;51.100;5.874;2023-04-01T00:34:17;1.49;1.38;1.18;0.89;7.09;7.08;7.03;6.77;5.57;0.71
66834;SPS30;53743;51.100;5.874;2023-04-01T00:35:18;1.03;0.96;0.82;0.62;4.96;4.95;4.92;4.74;3.90;0.70
66834;SPS30;53743;51.100;5.874;2023-04-01T00:36:20;1.02;0.95;0.81;0.61;4.92;4.91;4.88;4.70;3.88;0.70
66834;SPS30;53743;51.100;5.874;2023-04-01T00:37:23;1.34;1.25;1.08;0.82;6.54;6.53;6.49;6.26;5.17;0.70
66834;SPS30;53743;51.100;5.874;2023-04-01T00:38:25;1.32;1.24;1.07;0.81;6.52;6.51;6.47;6.25;5.17;0.70
66834;SPS30;53743;51.100;5.874;2023-04-01T00:39:28;1.24;1.16;1.00;0.77;6.15;6.15;6.11;5.90;4.90;0.69
66834;SPS30;53743;51.100;5.874;2023-04-01T00:40:33;0.89;0.83;0.72;0.56;4.46;4.46;4.43;4.29;3.57;0.69
66834;SPS30;53743;51.100;5.874;2023-04-01T00:41:36;1.00;0.94;0.81;0.62;4.97;4.96;4.93;4.76;3.95;0.69
66834;SPS30;53743;51.100;5.874;2023-04-01T00:42:38;0.96;0.89;0.77;0.59;4.72;4.71;4.68;4.52;3.75;0.70
66834;SPS30;53743;51.100;5.874;2023-04-01T00:43:39;0.92;0.85;0.73;0.56;4.45;4.44;4.41;4.25;3.51;0.71
66834;SPS30;53743;51.100;5.874;2023-04-01T00:44:42;1.40;1.31;1.12;0.85;6.78;6.77;6.73;6.48;5.35;0.71
66834;SPS30;53743;51.100;5.874;2023-04-01T00:45:44;0.90;0.84;0.72;0.55;4.38;4.37;4.34;4.19;3.47;0.71
66834;SPS30;53743;51.100;5.874;2023-04-01T00:46:46;1.03;0.96;0.82;0.62;4.97;4.96;4.93;4.75;3.92;0.71
66834;SPS30;53743;51.100;5.874;2023-04-01T00:47:48;0.94;0.87;0.75;0.56;4.49;4.48;4.45;4.29;3.53;0.71
66834;SPS30;53743;51.100;5.874;2023-04-01T00:48:50;0.79;0.73;0.63;0.47;3.77;3.76;3.74;3.60;2.96;0.71
66834;SPS30;53743;51.100;5.874;2023-04-01T00:49:54;0.74;0.68;0.58;0.44;3.52;3.51;3.49;3.36;2.76;0.71
66834;SPS30;53743;51.100;5.874;2023-04-01T00:50:56;0.57;0.53;0.45;0.34;2.73;2.73;2.71;2.61;2.15;0.71
66834;SPS30;53743;51.100;5.874;2023-04-01T00:52:03;0.86;0.80;0.69;0.52;4.17;4.16;4.13;3.99;3.29;0.70
66834;SPS30;53743;51.100;5.874;2023-04-01T00:53:08;0.79;0.73;0.63;0.48;3.83;3.82;3.80;3.66;3.02;0.70
66834;SPS30;53743;51.100;5.874;2023-04-01T00:54:11;1.06;0.99;0.85;0.64;5.12;5.11;5.08;4.89;4.03;0.70
66834;SPS30;53743;51.100;5.874;2023-04-01T00:55:15;0.81;0.76;0.64;0.47;3.80;3.80;3.77;3.62;2.97;0.71
66834;SPS30;53743;51.100;5.874;2023-04-01T00:56:21;0.80;0.74;0.63;0.47;3.75;3.74;3.72;3.57;2.92;0.71
66834;SPS30;53743;51.100;5.874;2023-04-01T00:57:27;0.54;0.50;0.42;0.32;2.52;2.52;2.50;2.40;1.97;0.71
66834;SPS30;53743;51.100;5.874;2023-04-01T00:58:37;0.56;0.52;0.44;0.33;2.63;2.62;2.61;2.51;2.06;0.71
66834;SPS30;53743;51.100;5.874;2023-04-01T00:59:43;0.56;0.52;0.44;0.33;2.65;2.64;2.62;2.52;2.07;0.71
66834;SPS30;53743;51.100;5.874;2023-04-01T01:00:47;0.72;0.67;0.57;0.43;3.44;3.43;3.41;3.28;2.71;0.70
66834;SPS30;53743;51.100;5.874;2023-04-01T01:01:52;0.65;0.61;0.52;0.39;3.15;3.14;3.12;3.01;2.48;0.70
66834;SPS30;53743;51.100;5.874;2023-04-01T01:02:53;0.91;0.85;0.73;0.55;4.38;4.38;4.35;4.18;3.45;0.70
66834;SPS30;53743;51.100;5.874;2023-04-01T01:03:55;1.07;0.99;0.84;0.63;5.03;5.03;4.99;4.80;3.94;0.71
66834;SPS30;53743;51.100;5.874;2023-04-01T01:04:55;0.90;0.84;0.72;0.53;4.28;4.28;4.25;4.08;3.35;0.70
66834;SPS30;53743;51.100;5.874;2023-04-01T01:07:25;1.03;0.96;0.83;0.63;5.03;5.02;4.99;4.81;3.98;0.69
66834;SPS30;53743;51.100;5.874;2023-04-01T01:08:45;0.98;0.91;0.78;0.59;4.71;4.71;4.67;4.50;3.71;0.69
66834;SPS30;53743;51.100;5.874;2023-04-01T01:09:58;0.84;0.79;0.68;0.51;4.10;4.09;4.07;3.92;3.24;0.68
66834;SPS30;53743;51.100;5.874;2023-04-01T01:11:05;0.72;0.67;0.57;0.43;3.45;3.45;3.42;3.30;2.72;0.68
66834;SPS30;53743;51.100;5.874;2023-04-01T01:12:14;0.82;0.76;0.65;0.49;3.95;3.95;3.92;3.78;3.12;0.68
66834;SPS30;53743;51.100;5.874;2023-04-01T01:13:22;1.08;1.01;0.86;0.65;5.23;5.22;5.18;5.00;4.12;0.68
66834;SPS30;53743;51.100;5.874;2023-04-01T01:14:36;0.69;0.64;0.55;0.41;3.31;3.30;3.28;3.16;2.61;0.69
66834;SPS30;53743;51.100;5.874;2023-04-01T01:15:55;0.97;0.91;0.77;0.57;4.60;4.59;4.56;4.38;3.59;0.70
66834;SPS30;53743;51.100;5.874;2023-04-01T01:17:02;0.99;0.92;0.78;0.57;4.60;4.59;4.56;4.37;3.58;0.71
66834;SPS30;53743;51.100;5.874;2023-04-01T01:18:15;0.90;0.84;0.71;0.53;4.21;4.21;4.18;4.01;3.29;0.70
66834;SPS30;53743;51.100;5.874;2023-04-01T01:19:35;0.82;0.76;0.65;0.49;3.89;3.89;3.86;3.71;3.05;0.70
66834;SPS30;53743;51.100;5.874;2023-04-01T01:21:02;0.70;0.65;0.55;0.41;3.30;3.30;3.28;3.15;2.59;0.69
66834;SPS30;53743;51.100;5.874;2023-04-01T01:22:36;0.77;0.72;0.61;0.46;3.71;3.70;3.68;3.54;2.92;0.69
66834;SPS30;53743;51.100;5.874;2023-04-01T01:24:07;0.81;0.75;0.64;0.49;3.90;3.90;3.87;3.73;3.08;0.69
66834;SPS30;53743;51.100;5.874;2023-04-01T01:25:25;0.66;0.62;0.53;0.41;3.25;3.24;3.22;3.11;2.58;0.68
66834;SPS30;53743;51.100;5.874;2023-04-01T01:26:46;0.91;0.85;0.73;0.55;4.43;4.43;4.40;4.25;3.51;0.69
66834;SPS30;53743;51.100;5.874;2023-04-01T01:27:57;0.91;0.85;0.73;0.55;4.44;4.43;4.40;4.24;3.50;0.69
66834;SPS30;53743;51.100;5.874;2023-04-01T01:29:22;0.78;0.73;0.63;0.48;3.85;3.85;3.82;3.69;3.05;0.67
66834;SPS30;53743;51.100;5.874;2023-04-01T01:30:48;0.75;0.70;0.61;0.47;3.75;3.75;3.73;3.60;3.00;0.67
66834;SPS30;53743;51.100;5.874;2023-04-01T01:31:59;0.68;0.64;0.56;0.43;3.47;3.46;3.44;3.33;2.78;0.66
66834;SPS30;53743;51.100;5.874;2023-04-01T01:34:36;0.79;0.74;0.65;0.50;4.02;4.02;3.99;3.87;3.22;0.67
66834;SPS30;53743;51.100;5.874;2023-04-01T01:35:49;0.69;0.65;0.56;0.44;3.49;3.48;3.46;3.35;2.79;0.67
66834;SPS30;53743;51.100;5.874;2023-04-01T01:36:55;0.68;0.64;0.55;0.42;3.40;3.40;3.38;3.26;2.71;0.67
66834;SPS30;53743;51.100;5.874;2023-04-01T01:38:03;0.82;0.76;0.65;0.49;3.96;3.96;3.93;3.79;3.13;0.68
66834;SPS30;53743;51.100;5.874;2023-04-01T01:39:08;1.03;0.96;0.82;0.61;4.92;4.91;4.88;4.70;3.86;0.68
66834;SPS30;53743;51.100;5.874;2023-04-01T01:40:12;1.44;1.34;1.15;0.87;7.00;6.99;6.94;6.70;5.53;0.68
66834;SPS30;53743;51.100;5.874;2023-04-01T01:41:16;0.61;0.57;0.49;0.37;2.98;2.98;2.96;2.86;2.37;0.67
66834;SPS30;53743;51.100;5.874;2023-04-01T01:42:22;0.70;0.65;0.56;0.43;3.43;3.43;3.41;3.29;2.73;0.67
66834;SPS30;53743;51.100;5.874;2023-04-01T01:43:29;0.88;0.82;0.72;0.55;4.42;4.42;4.39;4.25;3.54;0.66
66834;SPS30;53743;51.100;5.874;2023-04-01T01:44:34;0.81;0.76;0.66;0.51;4.10;4.09;4.07;3.94;3.28;0.66
66834;SPS30;53743;51.100;5.874;2023-04-01T01:45:39;0.83;0.78;0.68;0.53;4.23;4.23;4.20;4.07;3.40;0.66
66834;SPS30;53743;51.100;5.874;2023-04-01T01:46:47;0.66;0.62;0.54;0.42;3.37;3.37;3.35;3.25;2.72;0.66
66834;SPS30;53743;51.100;5.874;2023-04-01T01:47:50;0.78;0.73;0.64;0.50;3.99;3.99;3.96;3.84;3.21;0.66
66834;SPS30;53743;51.100;5.874;2023-04-01T01:48:53;0.97;0.92;0.80;0.63;5.03;5.02;4.99;4.84;4.05;0.66
66834;SPS30;53743;51.100;5.874;2023-04-01T01:49:57;0.94;0.89;0.77;0.60;4.81;4.80;4.78;4.63;3.86;0.66
66834;SPS30;53743;51.100;5.874;2023-04-01T01:51:03;0.82;0.77;0.67;0.51;4.11;4.10;4.08;3.95;3.28;0.66
66834;SPS30;53743;51.100;5.874;2023-04-01T01:52:05;0.74;0.69;0.60;0.47;3.72;3.72;3.70;3.58;2.98;0.66
66834;SPS30;53743;51.100;5.874;2023-04-01T01:53:08;0.87;0.82;0.71;0.55;4.37;4.36;4.34;4.19;3.48;0.67
66834;SPS30;53743;51.100;5.874;2023-04-01T01:54:11;0.84;0.79;0.69;0.53;4.26;4.25;4.23;4.09;3.41;0.66
66834;SPS30;53743;51.100;5.874;2023-04-01T01:55:23;0.93;0.87;0.76;0.60;4.76;4.76;4.73;4.59;3.83;0.65
66834;SPS30;53743;51.100;5.874;2023-04-01T01:56:31;0.83;0.78;0.68;0.54;4.33;4.32;4.30;4.18;3.51;0.64
66834;SPS30;53743;51.100;5.874;2023-04-01T01:57:36;0.65;0.61;0.54;0.43;3.41;3.41;3.39;3.30;2.77;0.64
66834;SPS30;53743;51.100;5.874;2023-04-01T01:58:47;0.69;0.65;0.57;0.45;3.57;3.57;3.55;3.45;2.89;0.64
66834;SPS30;53743;51.100;5.874;2023-04-01T01:59:55;0.81;0.76;0.66;0.52;4.18;4.18;4.16;4.03;3.38;0.64
66834;SPS30;53743;51.100;5.874;2023-04-01T02:01:03;1.07;1.01;0.89;0.71;5.67;5.67;5.64;5.48;4.61;0.64
66834;SPS30;53743;51.100;5.874;2023-04-01T02:02:08;0.84;0.79;0.70;0.56;4.46;4.45;4.43;4.31;3.62;0.64
66834;SPS30;53743;51.100;5.874;2023-04-01T02:03:12;0.84;0.80;0.71;0.57;4.53;4.52;4.50;4.38;3.69;0.63
66834;SPS30;53743;51.100;5.874;2023-04-01T02:04:16;0.75;0.71;0.64;0.52;4.13;4.12;4.10;4.00;3.38;0.62
66834;SPS30;53743;51.100;5.874;2023-04-01T02:05:20;0.76;0.72;0.65;0.53;4.21;4.21;4.19;4.09;3.46;0.62
66834;SPS30;53743;51.100;5.874;2023-04-01T02:06:38;1.15;1.09;0.97;0.78;6.26;6.26;6.23;6.07;5.13;0.63
66834;SPS30;53743;51.100;5.874;2023-04-01T02:07:48;0.92;0.87;0.77;0.61;4.89;4.88;4.86;4.73;3.97;0.65
66834;SPS30;53743;51.100;5.874;2023-04-01T02:08:59;0.84;0.80;0.70;0.55;4.43;4.42;4.40;4.27;3.58;0.65
66834;SPS30;53743;51.100;5.874;2023-04-01T02:10:03;0.60;0.57;0.50;0.40;3.20;3.19;3.18;3.09;2.60;0.64
66834;SPS30;53743;51.100;5.874;2023-04-01T02:11:07;0.73;0.70;0.62;0.50;4.01;4.00;3.98;3.88;3.28;0.62
66834;SPS30;53743;51.100;5.874;2023-04-01T02:12:14;0.92;0.87;0.78;0.63;5.07;5.07;5.04;4.92;4.16;0.62
66834;SPS30;53743;51.100;5.874;2023-04-01T02:13:21;0.52;0.49;0.44;0.35;2.84;2.84;2.82;2.75;2.32;0.63
66834;SPS30;53743;51.100;5.874;2023-04-01T02:14:33;0.46;0.44;0.39;0.31;2.51;2.50;2.49;2.43;2.05;0.62
66834;SPS30;53743;51.100;5.874;2023-04-01T02:15:44;0.69;0.65;0.58;0.46;3.71;3.70;3.69;3.59;3.03;0.63
66834;SPS30;53743;51.100;5.874;2023-04-01T02:16:51;0.65;0.62;0.55;0.43;3.48;3.47;3.46;3.36;2.83;0.64
66834;SPS30;53743;51.100;5.874;2023-04-01T02:17:59;0.71;0.67;0.59;0.46;3.72;3.71;3.69;3.59;3.01;0.63
66834;SPS30;53743;51.100;5.874;2023-04-01T02:19:00;0.57;0.54;0.48;0.38;3.02;3.01;3.00;2.91;2.44;0.63
66834;SPS30;53743;51.100;5.874;2023-04-01T02:20:09;0.57;0.54;0.48;0.38;3.02;3.02;3.00;2.92;2.45;0.63
66834;SPS30;53743;51.100;5.874;2023-04-01T02:21:15;0.65;0.61;0.54;0.42;3.38;3.37;3.36;3.26;2.73;0.64
66834;SPS30;53743;51.100;5.874;2023-04-01T02:22:23;0.74;0.70;0.61;0.47;3.77;3.77;3.74;3.63;3.02;0.65
66834;SPS30;53743;51.100;5.874;2023-04-01T02:23:26;0.99;0.92;0.80;0.62;4.95;4.94;4.91;4.75;3.95;0.66
66834;SPS30;53743;51.100;5.874;2023-04-01T02:24:30;0.54;0.50;0.43;0.33;2.68;2.68;2.66;2.57;2.14;0.66
66834;SPS30;53743;51.100;5.874;2023-04-01T02:25:36;0.58;0.54;0.47;0.36;2.90;2.89;2.88;2.78;2.31;0.66
66834;SPS30;53743;51.100;5.874;2023-04-01T02:26:40;0.64;0.60;0.51;0.39;3.12;3.12;3.10;2.99;2.47;0.67
66834;SPS30;53743;51.100;5.874;2023-04-01T02:27:43;0.65;0.60;0.52;0.39;3.10;3.09;3.07;2.95;2.43;0.68
66834;SPS30;53743;51.100;5.874;2023-04-01T02:28:46;0.85;0.79;0.67;0.50;4.00;3.99;3.97;3.81;3.13;0.67
66834;SPS30;53743;51.100;5.874;2023-04-01T02:29:51;0.86;0.80;0.68;0.50;4.03;4.02;4.00;3.84;3.15;0.68
66834;SPS30;53743;51.100;5.874;2023-04-01T02:30:54;0.50;0.46;0.39;0.29;2.36;2.35;2.34;2.25;1.84;0.68
66834;SPS30;53743;51.100;5.874;2023-04-01T02:32:00;0.71;0.66;0.57;0.43;3.41;3.40;3.38;3.25;2.67;0.67
66834;SPS30;53743;51.100;5.874;2023-04-01T02:33:04;0.64;0.60;0.51;0.38;3.04;3.04;3.02;2.91;2.39;0.67
66834;SPS30;53743;51.100;5.874;2023-04-01T02:34:06;0.70;0.65;0.56;0.42;3.37;3.37;3.35;3.22;2.66;0.67
66834;SPS30;53743;51.100;5.874;2023-04-01T02:35:09;0.59;0.55;0.47;0.35;2.82;2.81;2.79;2.69;2.22;0.67
66834;SPS30;53743;51.100;5.874;2023-04-01T02:36:12;0.39;0.36;0.31;0.23;1.87;1.86;1.85;1.78;1.47;0.67
66834;SPS30;53743;51.100;5.874;2023-04-01T02:37:15;0.58;0.54;0.46;0.35;2.83;2.82;2.80;2.70;2.24;0.66
66834;SPS30;53743;51.100;5.874;2023-04-01T02:38:18;0.90;0.84;0.72;0.55;4.38;4.37;4.34;4.19;3.46;0.66
66834;SPS30;53743;51.100;5.874;2023-04-01T02:39:20;0.65;0.60;0.52;0.39;3.12;3.11;3.09;2.98;2.45;0.67
66834;SPS30;53743;51.100;5.874;2023-04-01T02:40:21;0.52;0.49;0.42;0.31;2.51;2.51;2.49;2.40;1.98;0.67
66834;SPS30;53743;51.100;5.874;2023-04-01T02:41:24;0.51;0.48;0.41;0.31;2.49;2.48;2.47;2.38;1.96;0.66
66834;SPS30;53743;51.100;5.874;2023-04-01T02:42:25;0.59;0.55;0.47;0.36;2.85;2.84;2.83;2.72;2.25;0.66
66834;SPS30;53743;51.100;5.874;2023-04-01T02:43:27;0.98;0.91;0.79;0.59;4.76;4.76;4.73;4.56;3.76;0.65
66834;SPS30;53743;51.100;5.874;2023-04-01T02:44:28;0.81;0.76;0.65;0.49;3.96;3.96;3.93;3.79;3.14;0.65
66834;SPS30;53743;51.100;5.874;2023-04-01T02:45:30;0.77;0.72;0.62;0.47;3.78;3.78;3.76;3.62;3.00;0.65
66834;SPS30;53743;51.100;5.874;2023-04-01T02:46:31;0.49;0.46;0.39;0.30;2.42;2.41;2.40;2.32;1.92;0.65
66834;SPS30;53743;51.100;5.874;2023-04-01T02:47:33;0.53;0.50;0.43;0.33;2.65;2.65;2.64;2.55;2.12;0.65
66834;SPS30;53743;51.100;5.874;2023-04-01T02:48:34;0.54;0.51;0.44;0.34;2.73;2.73;2.71;2.62;2.18;0.64
66834;SPS30;53743;51.100;5.874;2023-04-01T02:49:35;0.65;0.61;0.53;0.41;3.25;3.24;3.22;3.12;2.59;0.66
66834;SPS30;53743;51.100;5.874;2023-04-01T02:50:36;0.63;0.59;0.51;0.39;3.12;3.12;3.10;3.00;2.49;0.66
66834;SPS30;53743;51.100;5.874;2023-04-01T02:51:38;0.65;0.61;0.53;0.41;3.26;3.25;3.23;3.12;2.59;0.66
66834;SPS30;53743;51.100;5.874;2023-04-01T02:52:39;0.57;0.53;0.46;0.36;2.88;2.88;2.86;2.77;2.31;0.65
66834;SPS30;53743;51.100;5.874;2023-04-01T02:53:42;0.89;0.84;0.73;0.57;4.53;4.53;4.50;4.36;3.63;0.65
66834;SPS30;53743;51.100;5.874;2023-04-01T02:54:43;0.88;0.83;0.72;0.56;4.52;4.51;4.49;4.35;3.64;0.64
66834;SPS30;53743;51.100;5.874;2023-04-01T02:55:45;0.74;0.69;0.60;0.47;3.79;3.78;3.76;3.65;3.05;0.64
66834;SPS30;53743;51.100;5.874;2023-04-01T02:56:46;0.59;0.56;0.49;0.38;3.08;3.07;3.06;2.97;2.49;0.63
66834;SPS30;53743;51.100;5.874;2023-04-01T02:57:48;0.68;0.64;0.57;0.45;3.57;3.57;3.55;3.45;2.89;0.62
66834;SPS30;53743;51.100;5.874;2023-04-01T02:58:49;0.84;0.79;0.70;0.55;4.42;4.41;4.39;4.27;3.58;0.62
66834;SPS30;53743;51.100;5.874;2023-04-01T02:59:51;0.57;0.53;0.47;0.37;2.99;2.99;2.98;2.89;2.43;0.61
66834;SPS30;53743;51.100;5.874;2023-04-01T03:00:52;0.73;0.69;0.61;0.49;3.90;3.89;3.87;3.77;3.18;0.61
66834;SPS30;53743;51.100;5.874;2023-04-01T03:01:53;0.59;0.56;0.50;0.40;3.22;3.21;3.20;3.12;2.63;0.61
66834;SPS30;53743;51.100;5.874;2023-04-01T03:02:54;0.49;0.46;0.42;0.34;2.69;2.69;2.68;2.61;2.21;0.61
66834;SPS30;53743;51.100;5.874;2023-04-01T03:03:57;0.63;0.60;0.54;0.44;3.50;3.50;3.48;3.40;2.88;0.61
66834;SPS30;53743;51.100;5.874;2023-04-01T03:04:57;0.59;0.56;0.50;0.41;3.26;3.26;3.25;3.17;2.69;0.60
66834;SPS30;53743;51.100;5.874;2023-04-01T03:06:04;0.70;0.66;0.60;0.49;3.93;3.92;3.91;3.82;3.25;0.59
66834;SPS30;53743;51.100;5.874;2023-04-01T03:07:06;0.59;0.56;0.50;0.42;3.32;3.32;3.31;3.24;2.75;0.59
66834;SPS30;53743;51.100;5.874;2023-04-01T03:08:10;0.70;0.67;0.61;0.51;4.05;4.05;4.03;3.95;3.37;0.58
66834;SPS30;53743;51.100;5.874;2023-04-01T03:09:13;0.59;0.57;0.52;0.44;3.49;3.49;3.48;3.41;2.92;0.57
66834;SPS30;53743;51.100;5.874;2023-04-01T03:10:16;0.57;0.55;0.50;0.43;3.41;3.40;3.39;3.33;2.86;0.58
66834;SPS30;53743;51.100;5.874;2023-04-01T03:11:17;0.56;0.54;0.50;0.42;3.35;3.34;3.33;3.27;2.81;0.57
66834;SPS30;53743;51.100;5.874;2023-04-01T03:12:19;0.60;0.57;0.52;0.44;3.52;3.52;3.50;3.44;2.95;0.57
66834;SPS30;53743;51.100;5.874;2023-04-01T03:13:24;0.49;0.47;0.44;0.37;2.95;2.95;2.94;2.89;2.48;0.56
66834;SPS30;53743;51.100;5.874;2023-04-01T03:14:26;0.51;0.49;0.45;0.39;3.10;3.10;3.09;3.04;2.62;0.55
66834;SPS30;53743;51.100;5.874;2023-04-01T03:15:27;0.60;0.58;0.54;0.46;3.70;3.69;3.68;3.63;3.13;0.55
66834;SPS30;53743;51.100;5.874;2023-04-01T03:16:29;0.63;0.61;0.56;0.48;3.85;3.85;3.84;3.78;3.26;0.55
66834;SPS30;53743;51.100;5.874;2023-04-01T03:17:30;0.49;0.47;0.44;0.38;3.02;3.02;3.01;2.97;2.56;0.54
66834;SPS30;53743;51.100;5.874;2023-04-01T03:18:31;0.49;0.47;0.44;0.38;3.05;3.05;3.04;3.00;2.59;0.54
66834;SPS30;53743;51.100;5.874;2023-04-01T03:19:32;0.77;0.74;0.70;0.61;4.86;4.85;4.84;4.78;4.13;0.52
66834;SPS30;53743;51.100;5.874;2023-04-01T03:20:39;0.64;0.62;0.59;0.52;4.13;4.13;4.12;4.07;3.54;0.52
66834;SPS30;53743;51.100;5.874;2023-04-01T03:21:40;0.48;0.46;0.44;0.39;3.10;3.10;3.09;3.06;2.66;0.52
66834;SPS30;53743;51.100;5.874;2023-04-01T03:22:42;0.42;0.41;0.39;0.35;2.78;2.78;2.77;2.74;2.39;0.52
66834;SPS30;53743;51.100;5.874;2023-04-01T03:23:43;0.56;0.54;0.52;0.46;3.68;3.68;3.68;3.64;3.17;0.51
66834;SPS30;53743;51.100;5.874;2023-04-01T03:24:46;0.52;0.51;0.48;0.43;3.42;3.42;3.41;3.38;2.94;0.52
66834;SPS30;53743;51.100;5.874;2023-04-01T03:25:47;0.48;0.47;0.45;0.39;3.15;3.15;3.14;3.11;2.71;0.52
66834;SPS30;53743;51.100;5.874;2023-04-01T03:26:49;0.60;0.58;0.56;0.50;3.96;3.96;3.95;3.91;3.41;0.52
66834;SPS30;53743;51.100;5.874;2023-04-01T03:27:50;0.45;0.44;0.42;0.37;2.97;2.97;2.97;2.94;2.56;0.52
66834;SPS30;53743;51.100;5.874;2023-04-01T03:28:52;0.45;0.44;0.42;0.38;3.02;3.02;3.02;2.99;2.61;0.52
66834;SPS30;53743;51.100;5.874;2023-04-01T03:29:53;0.44;0.43;0.41;0.37;2.94;2.93;2.93;2.90;2.54;0.51
66834;SPS30;53743;51.100;5.874;2023-04-01T03:30:55;0.53;0.52;0.50;0.45;3.58;3.58;3.58;3.54;3.10;0.51
66834;SPS30;53743;51.100;5.874;2023-04-01T03:31:56;0.48;0.47;0.46;0.41;3.29;3.29;3.29;3.26;2.85;0.51
66834;SPS30;53743;51.100;5.874;2023-04-01T03:32:59;0.44;0.43;0.42;0.38;3.03;3.03;3.02;3.00;2.63;0.50
66834;SPS30;53743;51.100;5.874;2023-04-01T03:34:00;0.57;0.56;0.55;0.50;3.96;3.96;3.96;3.93;3.45;0.50
66834;SPS30;53743;51.100;5.874;2023-04-01T03:35:05;0.74;0.73;0.71;0.64;5.14;5.14;5.14;5.10;4.48;0.49
66834;SPS30;53743;51.100;5.874;2023-04-01T03:36:06;0.46;0.46;0.45;0.41;3.27;3.27;3.26;3.24;2.85;0.49
66834;SPS30;53743;51.100;5.874;2023-04-01T03:37:09;0.52;0.52;0.51;0.46;3.71;3.71;3.70;3.68;3.24;0.48
66834;SPS30;53743;51.100;5.874;2023-04-01T03:38:10;0.49;0.48;0.47;0.44;3.48;3.47;3.47;3.45;3.04;0.47
66834;SPS30;53743;51.100;5.874;2023-04-01T03:39:11;0.61;0.60;0.59;0.55;4.35;4.35;4.35;4.33;3.81;0.47
66834;SPS30;53743;51.100;5.874;2023-04-01T03:40:17;0.57;0.56;0.55;0.51;4.08;4.08;4.08;4.06;3.58;0.47
66834;SPS30;53743;51.100;5.874;2023-04-01T03:41:18;0.69;0.69;0.69;0.64;5.12;5.12;5.11;5.10;4.51;0.47
66834;SPS30;53743;51.100;5.874;2023-04-01T03:42:20;0.56;0.55;0.55;0.51;4.06;4.06;4.06;4.05;3.57;0.47
66834;SPS30;53743;51.100;5.874;2023-04-01T03:43:22;0.45;0.45;0.45;0.42;3.38;3.38;3.38;3.38;2.99;0.46
66834;SPS30;53743;51.100;5.874;2023-04-01T03:44:24;0.49;0.49;0.49;0.46;3.67;3.67;3.67;3.67;3.25;0.46
66834;SPS30;53743;51.100;5.874;2023-04-01T03:45:27;0.47;0.47;0.47;0.45;3.56;3.56;3.56;3.55;3.15;0.46
66834;SPS30;53743;51.100;5.874;2023-04-01T03:46:29;0.53;0.53;0.53;0.50;3.96;3.96;3.96;3.96;3.51;0.46
66834;SPS30;53743;51.100;5.874;2023-04-01T03:47:30;0.53;0.53;0.53;0.50;3.98;3.98;3.98;3.98;3.52;0.46
66834;SPS30;53743;51.100;5.874;2023-04-01T03:48:32;0.57;0.57;0.57;0.54;4.30;4.30;4.30;4.29;3.80;0.45
66834;SPS30;53743;51.100;5.874;2023-04-01T03:49:33;0.52;0.52;0.52;0.49;3.95;3.95;3.95;3.94;3.50;0.46
66834;SPS30;53743;51.100;5.874;2023-04-01T03:50:35;0.47;0.47;0.47;0.44;3.53;3.53;3.53;3.53;3.12;0.45
66834;SPS30;53743;51.100;5.874;2023-04-01T03:51:35;0.57;0.57;0.57;0.54;4.30;4.30;4.30;4.29;3.81;0.45
66834;SPS30;53743;51.100;5.874;2023-04-01T03:52:37;0.58;0.58;0.58;0.55;4.40;4.40;4.40;4.39;3.89;0.45
66834;SPS30;53743;51.100;5.874;2023-04-01T03:53:39;0.40;0.40;0.40;0.38;3.00;3.00;3.00;3.00;2.65;0.45
66834;SPS30;53743;51.100;5.874;2023-04-01T03:54:41;0.47;0.47;0.47;0.45;3.56;3.56;3.56;3.56;3.15;0.44
66834;SPS30;53743;51.100;5.874;2023-04-01T03:55:43;0.54;0.54;0.54;0.52;4.11;4.11;4.11;4.11;3.64;0.44
66834;SPS30;53743;51.100;5.874;2023-04-01T03:56:45;0.56;0.56;0.56;0.53;4.20;4.20;4.20;4.20;3.72;0.44
66834;SPS30;53743;51.100;5.874;2023-04-01T03:57:46;0.73;0.73;0.73;0.69;5.48;5.48;5.48;5.47;4.85;0.44
66834;SPS30;53743;51.100;5.874;2023-04-01T03:58:52;0.73;0.73;0.73;0.69;5.55;5.55;5.54;5.54;4.91;0.43
66834;SPS30;53743;51.100;5.874;2023-04-01T03:59:53;0.88;0.88;0.88;0.83;6.61;6.61;6.61;6.60;5.85;0.42
66834;SPS30;53743;51.100;5.874;2023-04-01T04:00:55;0.66;0.66;0.66;0.62;4.95;4.95;4.95;4.94;4.38;0.42
66834;SPS30;53743;51.100;5.874;2023-04-01T04:01:56;0.67;0.67;0.67;0.63;5.04;5.04;5.03;5.03;4.46;0.43
66834;SPS30;53743;51.100;5.874;2023-04-01T04:02:58;0.78;0.78;0.78;0.74;5.89;5.89;5.89;5.88;5.22;0.43
66834;SPS30;53743;51.100;5.874;2023-04-01T04:04:04;0.76;0.76;0.76;0.72;5.71;5.71;5.71;5.70;5.05;0.42
66834;SPS30;53743;51.100;5.874;2023-04-01T04:05:07;0.74;0.74;0.74;0.70;5.62;5.62;5.62;5.62;4.98;0.42
66834;SPS30;53743;51.100;5.874;2023-04-01T04:06:10;0.76;0.76;0.76;0.71;5.70;5.70;5.70;5.69;5.05;0.42
66834;SPS30;53743;51.100;5.874;2023-04-01T04:07:12;0.70;0.70;0.70;0.66;5.28;5.28;5.27;5.27;4.67;0.41
66834;SPS30;53743;51.100;5.874;2023-04-01T04:08:36;0.83;0.83;0.83;0.78;6.24;6.23;6.23;6.23;5.52;0.42
66834;SPS30;53743;51.100;5.874;2023-04-01T04:09:38;0.81;0.81;0.81;0.77;6.13;6.13;6.13;6.12;5.42;0.41
66834;SPS30;53743;51.100;5.874;2023-04-01T04:10:40;0.76;0.76;0.76;0.72;5.75;5.75;5.75;5.74;5.09;0.41
66834;SPS30;53743;51.100;5.874;2023-04-01T04:11:42;0.75;0.75;0.75;0.71;5.66;5.66;5.65;5.65;5.00;0.41
66834;SPS30;53743;51.100;5.874;2023-04-01T04:12:44;1.11;1.11;1.11;1.05;8.36;8.36;8.36;8.34;7.39;0.40
66834;SPS30;53743;51.100;5.874;2023-04-01T04:13:45;0.96;0.96;0.96;0.91;7.28;7.28;7.28;7.27;6.44;0.40
66834;SPS30;53743;51.100;5.874;2023-04-01T04:14:48;0.79;0.79;0.79;0.75;5.96;5.96;5.96;5.95;5.27;0.39
66834;SPS30;53743;51.100;5.874;2023-04-01T04:15:49;0.71;0.71;0.71;0.67;5.34;5.34;5.34;5.33;4.73;0.39